createdAt,value
2023-04-27T00:00:43.510Z,1.90
2023-04-27T00:03:27.875Z,1.40
2023-04-27T00:06:12.454Z,1.87
2023-04-27T00:08:56.617Z,1.63
2023-04-27T00:11:42.161Z,1.63
2023-04-27T00:14:28.729Z,1.67
2023-04-27T00:17:12.750Z,1.50
2023-04-27T00:19:56.828Z,1.80
2023-04-27T00:22:41.111Z,1.70
2023-04-27T00:25:25.302Z,1.80
2023-04-27T00:28:10.791Z,1.40
2023-04-27T00:30:55.297Z,1.50
2023-04-27T00:33:39.472Z,1.07
2023-04-27T00:36:23.496Z,1.50
2023-04-27T00:39:07.542Z,1.50
2023-04-27T00:41:51.717Z,1.60
2023-04-27T00:44:39.914Z,1.30
2023-04-27T00:47:24.195Z,1.57
2023-04-27T00:50:10.678Z,1.47
2023-04-27T00:52:55.148Z,1.30
2023-04-27T00:55:39.000Z,1.87
2023-04-27T00:58:23.202Z,2.30
2023-04-27T01:01:08.907Z,1.83
2023-04-27T01:03:54.782Z,2.50
2023-04-27T01:06:40.521Z,2.40
2023-04-27T01:09:25.924Z,2.23
2023-04-27T01:12:10.002Z,2.33
2023-04-27T01:14:53.995Z,2.50
2023-04-27T01:17:39.461Z,2.43
2023-04-27T01:20:24.047Z,2.30
2023-04-27T01:23:07.947Z,2.30
2023-04-27T01:25:54.386Z,2.47
2023-04-27T01:28:38.368Z,3.10
2023-04-27T01:31:22.410Z,3.00
2023-04-27T01:34:06.730Z,2.80
2023-04-27T01:36:50.776Z,2.90
2023-04-27T01:39:35.001Z,2.90
2023-04-27T01:42:20.327Z,2.60
2023-04-27T01:45:04.726Z,2.80
2023-04-27T01:47:52.340Z,3.03
2023-04-27T01:50:38.097Z,1.97
2023-04-27T01:53:23.933Z,2.60
2023-04-27T01:56:08.182Z,2.10
2023-04-27T01:58:54.399Z,2.93
2023-04-27T02:01:38.397Z,3.37
2023-04-27T02:04:22.614Z,3.30
2023-04-27T02:07:06.796Z,3.50
2023-04-27T02:09:52.604Z,4.00
2023-04-27T02:12:36.586Z,3.30
2023-04-27T02:15:23.137Z,3.60
2023-04-27T02:18:07.552Z,4.97
2023-04-27T02:20:51.735Z,4.73
2023-04-27T02:23:36.058Z,4.10
2023-04-27T02:26:22.261Z,4.03
2023-04-27T02:29:06.716Z,4.67
2023-04-27T02:31:52.302Z,4.00
2023-04-27T02:34:36.495Z,5.17
2023-04-27T02:37:20.990Z,4.10
2023-04-27T02:40:07.410Z,4.23
2023-04-27T02:42:52.259Z,3.33
2023-04-27T02:45:39.264Z,3.63
2023-04-27T02:48:24.597Z,3.90
2023-04-27T02:51:08.666Z,3.80
2023-04-27T02:53:54.872Z,5.07
2023-04-27T02:56:39.067Z,4.47
2023-04-27T02:59:23.140Z,4.10
2023-04-27T03:02:07.930Z,4.33
2023-04-27T03:04:56.263Z,4.13
2023-04-27T03:07:41.406Z,4.17
2023-04-27T03:10:25.358Z,3.07
2023-04-27T03:13:09.354Z,4.10
2023-04-27T03:15:53.587Z,3.40
2023-04-27T03:18:37.934Z,4.53
2023-04-27T03:21:23.352Z,4.00
2023-04-27T03:24:07.757Z,4.10
2023-04-27T03:26:52.351Z,4.40
2023-04-27T03:29:39.140Z,4.67
2023-04-27T03:32:23.513Z,4.33
2023-04-27T03:35:09.294Z,4.00
2023-04-27T03:37:55.266Z,4.73
2023-04-27T03:40:39.413Z,5.47
2023-04-27T03:43:23.796Z,5.10
2023-04-27T03:46:07.929Z,4.10
2023-04-27T03:48:52.256Z,4.40
2023-04-27T03:51:38.333Z,3.57
2023-04-27T03:54:23.842Z,4.63
2023-04-27T03:57:07.976Z,4.43
2023-04-27T03:59:53.325Z,4.83
2023-04-27T04:02:37.472Z,4.93
2023-04-27T04:05:21.842Z,4.23
2023-04-27T04:08:06.554Z,3.77
2023-04-27T04:10:52.343Z,5.30
2023-04-27T04:13:36.830Z,4.97
2023-04-27T04:16:21.189Z,6.53
2023-04-27T04:19:05.415Z,5.27
2023-04-27T04:21:49.500Z,4.50
2023-04-27T04:24:33.742Z,4.03
2023-04-27T04:27:19.366Z,4.27
2023-04-27T04:30:06.583Z,4.67
2023-04-27T04:32:52.714Z,5.17
2023-04-27T04:35:39.460Z,4.80
2023-04-27T04:38:23.994Z,4.17
2023-04-27T04:41:08.700Z,4.13
2023-04-27T04:43:55.859Z,5.03
2023-04-27T04:46:40.093Z,3.93
2023-04-27T04:49:24.315Z,3.93
2023-04-27T04:52:08.669Z,4.90
2023-04-27T04:54:53.510Z,5.00
2023-04-27T04:57:38.612Z,4.23
2023-04-27T05:00:24.656Z,4.40
2023-04-27T05:03:08.745Z,5.03
2023-04-27T05:05:52.941Z,4.60
2023-04-27T05:08:37.386Z,5.17
2023-04-27T05:11:22.400Z,5.60
2023-04-27T05:14:06.535Z,5.47
2023-04-27T05:16:52.148Z,4.20
2023-04-27T05:19:36.152Z,4.80
2023-04-27T05:22:20.116Z,4.67
2023-04-27T05:25:04.915Z,5.30
2023-04-27T05:27:48.984Z,4.70
2023-04-27T05:30:33.228Z,5.53
2023-04-27T05:33:18.784Z,5.70
2023-04-27T05:36:03.005Z,5.47
2023-04-27T05:38:47.153Z,4.80
2023-04-27T05:41:31.722Z,4.40
2023-04-27T05:44:15.845Z,4.97
2023-04-27T05:46:59.962Z,4.63
2023-04-27T05:49:45.776Z,4.17
2023-04-27T05:52:31.105Z,4.30
2023-04-27T05:55:15.361Z,4.93
2023-04-27T05:58:07.812Z,4.07
2023-04-27T06:00:53.175Z,4.23
2023-04-27T06:03:37.521Z,3.40
2023-04-27T06:06:23.130Z,5.40
2023-04-27T06:09:07.285Z,5.53
2023-04-27T06:11:51.362Z,4.47
2023-04-27T06:14:36.774Z,4.43
2023-04-27T06:17:20.934Z,3.93
2023-04-27T06:20:07.002Z,4.80
2023-04-27T06:22:52.684Z,5.57
2023-04-27T06:25:40.388Z,4.50
2023-04-27T06:28:24.539Z,4.73
2023-04-27T06:31:08.764Z,4.40
2023-04-27T06:33:52.964Z,4.83
2023-04-27T06:36:37.061Z,3.63
2023-04-27T06:39:22.942Z,4.93
2023-04-27T06:42:07.420Z,4.67
2023-04-27T06:44:55.372Z,4.13
2023-04-27T06:47:39.681Z,2.90
2023-04-27T06:50:23.825Z,3.50
2023-04-27T06:53:08.443Z,3.43
2023-04-27T06:55:53.830Z,3.93
2023-04-27T06:58:38.012Z,3.97
2023-04-27T07:01:22.206Z,4.87
2023-04-27T07:04:06.968Z,3.27
2023-04-27T07:06:51.561Z,3.10
2023-04-27T07:09:35.667Z,3.40
2023-04-27T07:12:21.161Z,3.50
2023-04-27T07:15:06.615Z,4.07
2023-04-27T07:17:50.641Z,3.50
2023-04-27T07:20:34.881Z,3.47
2023-04-27T07:23:18.942Z,3.63
2023-04-27T07:26:03.027Z,3.60
2023-04-27T07:28:48.696Z,3.53
2023-04-27T07:31:33.367Z,4.07
2023-04-27T07:34:17.583Z,3.70
2023-04-27T07:37:01.711Z,2.43
2023-04-27T07:39:46.779Z,2.17
2023-04-27T07:42:30.795Z,2.80
2023-04-27T07:45:17.589Z,2.80
2023-04-27T07:48:02.597Z,2.70
2023-04-27T07:50:46.923Z,2.83
2023-04-27T07:53:31.340Z,2.97
2023-04-27T07:56:15.255Z,3.77
2023-04-27T07:58:59.294Z,3.03
2023-04-27T08:01:44.928Z,2.63
2023-04-27T08:04:29.319Z,3.00
2023-04-27T08:07:14.172Z,2.90
2023-04-27T08:09:58.256Z,2.60
2023-04-27T08:12:42.388Z,2.80
2023-04-27T08:15:26.531Z,2.50
2023-04-27T08:18:11.993Z,3.70
2023-04-27T08:20:56.477Z,5.30
2023-04-27T08:23:40.520Z,4.50
2023-04-27T08:26:26.295Z,5.60
2023-04-27T08:29:23.621Z,3.47
2023-04-27T08:32:11.641Z,4.00
2023-04-27T08:34:57.260Z,3.90
2023-04-27T08:37:41.410Z,3.30
2023-04-27T08:40:25.856Z,3.20
2023-04-27T08:43:10.327Z,2.20
2023-04-27T08:45:54.927Z,3.00
2023-04-27T08:48:39.516Z,2.67
2023-04-27T08:51:27.709Z,2.43
2023-04-27T08:54:12.255Z,3.97
2023-04-27T08:56:57.051Z,2.77
2023-04-27T08:59:41.758Z,2.40
2023-04-27T09:02:27.509Z,3.00
2023-04-27T09:05:18.503Z,2.50
2023-04-27T09:08:08.436Z,2.30
2023-04-27T09:10:54.924Z,2.80
2023-04-27T09:13:40.916Z,2.90
2023-04-27T09:16:26.366Z,2.30
2023-04-27T09:19:11.176Z,2.10
2023-04-27T09:22:05.214Z,2.77
2023-04-27T09:24:54.600Z,2.23
2023-04-27T09:27:40.087Z,2.67
2023-04-27T09:30:24.539Z,2.90
2023-04-27T09:33:08.825Z,2.97
2023-04-27T09:35:53.578Z,2.53
2023-04-27T09:38:40.284Z,2.77
2023-04-27T09:41:27.023Z,3.20
2023-04-27T09:44:11.431Z,2.90
2023-04-27T09:46:59.381Z,2.70
2023-04-27T09:49:43.792Z,2.67
2023-04-27T09:52:27.975Z,2.20
2023-04-27T09:55:17.057Z,2.60
2023-04-27T09:58:16.885Z,2.13
2023-04-27T10:01:15.474Z,3.53
2023-04-27T10:04:14.877Z,3.03
2023-04-27T10:07:01.511Z,2.67
2023-04-27T10:09:47.804Z,2.30
2023-04-27T10:12:36.957Z,2.33
2023-04-27T10:15:29.555Z,2.30
2023-04-27T10:18:13.781Z,2.27
2023-04-27T10:20:58.802Z,2.77
2023-04-27T10:23:51.259Z,4.13
2023-04-27T10:26:39.957Z,2.03
2023-04-27T10:29:24.715Z,2.93
2023-04-27T10:32:11.847Z,2.53
2023-04-27T10:35:06.546Z,2.33
2023-04-27T10:37:52.282Z,2.70
2023-04-27T10:40:37.424Z,3.20
2023-04-27T10:43:27.046Z,2.63
2023-04-27T10:46:13.229Z,2.67
2023-04-27T10:48:59.580Z,3.00
2023-04-27T10:51:44.152Z,1.67
2023-04-27T10:54:29.646Z,3.03
2023-04-27T10:57:14.419Z,3.00
2023-04-27T10:59:58.557Z,2.13
2023-04-27T11:02:42.814Z,2.17
2023-04-27T11:05:32.951Z,1.97
2023-04-27T11:08:18.860Z,2.30
2023-04-27T11:11:03.055Z,2.40
2023-04-27T11:13:50.918Z,2.60
2023-04-27T11:16:35.337Z,2.40
2023-04-27T11:19:19.729Z,2.90
2023-04-27T11:22:07.745Z,2.80
2023-04-27T11:24:52.972Z,3.50
2023-04-27T11:27:40.737Z,2.47
2023-04-27T11:30:26.881Z,1.97
2023-04-27T11:33:11.283Z,2.57
2023-04-27T11:35:56.774Z,2.00
2023-04-27T11:38:43.755Z,2.80
2023-04-27T11:41:35.149Z,1.80
2023-04-27T11:44:19.509Z,2.17
2023-04-27T11:47:05.214Z,2.60
2023-04-27T11:49:50.245Z,2.10
2023-04-27T11:52:36.774Z,2.73
2023-04-27T11:55:24.893Z,2.20
2023-04-27T11:58:15.358Z,2.10
2023-04-27T12:00:59.849Z,2.33
2023-04-27T12:03:44.110Z,3.03
2023-04-27T12:06:33.310Z,2.60
2023-04-27T12:09:18.701Z,2.63
2023-04-27T12:12:04.915Z,2.40
2023-04-27T12:14:49.297Z,2.42
2023-04-27T12:17:34.147Z,2.23
2023-04-27T12:20:18.575Z,2.40
2023-04-27T12:23:03.058Z,2.10
2023-04-27T12:25:47.332Z,2.53
2023-04-27T12:28:33.336Z,2.25
2023-04-27T13:32:25.731Z,2.85
2023-04-27T13:35:10.926Z,3.15
2023-04-27T13:37:55.104Z,3.40
2023-04-27T13:40:39.068Z,3.30
2023-04-27T13:43:23.249Z,2.73
2023-04-27T13:46:07.714Z,2.87
2023-04-27T13:48:53.170Z,3.17
2023-04-27T13:51:37.355Z,3.13
2023-04-27T13:54:21.892Z,3.40
2023-04-27T13:57:06.013Z,2.97
2023-04-27T13:59:50.123Z,3.97
2023-04-27T14:02:34.478Z,3.17
2023-04-27T14:05:20.332Z,3.33
2023-04-27T14:08:04.642Z,2.97
2023-04-27T14:10:50.740Z,3.10
2023-04-27T14:13:34.834Z,2.93
2023-04-27T14:16:18.939Z,2.93
2023-04-27T14:19:03.024Z,3.10
2023-04-27T14:21:48.951Z,2.80
2023-04-27T14:24:33.040Z,2.80
2023-04-27T14:27:17.194Z,4.07
2023-04-27T14:30:02.269Z,3.38
2023-04-27T14:32:48.400Z,2.78
2023-04-27T14:35:37.215Z,3.15
2023-04-27T14:38:22.989Z,3.78
2023-04-27T14:41:08.545Z,3.27
2023-04-27T14:43:53.287Z,3.13
2023-04-27T14:46:38.498Z,3.40
2023-04-27T14:49:22.697Z,3.35
2023-04-27T14:52:07.084Z,3.25
2023-04-27T14:54:52.516Z,3.22
2023-04-27T14:57:37.780Z,3.30
2023-04-27T15:00:22.084Z,3.97
2023-04-27T15:03:06.381Z,3.40
2023-04-27T15:05:51.615Z,3.70
2023-04-27T15:08:35.742Z,3.00
2023-04-27T15:11:22.203Z,3.03
2023-04-27T15:14:06.416Z,3.43
2023-04-27T15:16:50.997Z,3.50
2023-04-27T15:19:34.993Z,3.07
2023-04-27T15:22:19.066Z,3.03
2023-04-27T15:25:03.064Z,2.73
2023-04-27T15:27:49.852Z,2.90
2023-04-27T15:30:35.678Z,2.97
2023-04-27T15:33:19.986Z,4.13
2023-04-27T15:36:04.202Z,3.00
2023-04-27T15:38:48.295Z,3.40
2023-04-27T15:41:32.443Z,3.50
2023-04-27T15:44:17.981Z,4.17
2023-04-27T15:47:02.205Z,3.87
2023-04-27T15:49:57.100Z,3.23
2023-04-27T15:52:42.108Z,3.00
2023-04-27T15:55:26.140Z,2.90
2023-04-27T15:58:10.188Z,3.20
2023-04-27T16:00:55.921Z,3.33
2023-04-27T16:03:40.239Z,3.23
2023-04-27T16:06:24.389Z,4.43
2023-04-27T16:09:10.695Z,2.97
2023-04-27T16:11:55.086Z,3.17
2023-04-27T16:14:39.634Z,3.47
2023-04-27T16:17:25.283Z,3.23
2023-04-27T16:20:10.218Z,3.50
2023-04-27T16:22:54.276Z,2.97
2023-04-27T16:25:38.433Z,3.00
2023-04-27T16:28:22.512Z,3.47
2023-04-27T16:31:06.640Z,3.40
2023-04-27T16:33:52.251Z,3.80
2023-04-27T16:36:36.705Z,3.73
2023-04-27T16:39:20.949Z,3.20
2023-04-27T16:42:05.529Z,3.27
2023-04-27T16:44:49.701Z,3.33
2023-04-27T16:47:33.925Z,3.17
2023-04-27T16:50:19.541Z,3.50
2023-04-27T16:53:07.234Z,3.77
2023-04-27T16:55:51.352Z,4.30
2023-04-27T16:58:36.335Z,3.73
2023-04-27T17:01:20.528Z,3.50
2023-04-27T17:04:04.868Z,2.97
2023-04-27T17:06:50.402Z,3.97
2023-04-27T17:09:36.386Z,3.90
2023-04-27T17:12:20.539Z,7.63
2023-04-27T17:15:04.806Z,7.90
2023-04-27T17:17:50.660Z,6.03
2023-04-27T17:20:34.850Z,5.67
2023-04-27T17:23:20.157Z,4.87
2023-04-27T17:26:04.190Z,4.83
2023-04-27T17:28:48.121Z,4.57
2023-04-27T17:31:32.517Z,4.23
2023-04-27T17:34:16.510Z,4.60
2023-04-27T17:37:00.576Z,4.07
2023-04-27T17:39:46.340Z,4.53
2023-04-27T17:42:30.569Z,4.67
2023-04-27T17:45:14.685Z,4.53
2023-04-27T17:47:58.985Z,3.63
2023-04-27T17:50:43.056Z,3.50
2023-04-27T17:53:27.365Z,3.93
2023-04-27T17:56:12.928Z,3.77
2023-04-27T17:58:56.882Z,4.10
2023-04-27T18:01:40.872Z,3.47
2023-04-27T18:04:25.033Z,5.43
2023-04-27T18:07:08.975Z,4.20
2023-04-27T18:09:52.951Z,4.13
2023-04-27T18:12:38.436Z,4.53
2023-04-27T18:15:22.379Z,4.83
2023-04-27T18:18:06.552Z,4.67
2023-04-27T18:20:50.711Z,4.70
2023-04-27T18:23:36.491Z,5.07
2023-04-27T18:26:22.100Z,5.10
2023-04-27T18:29:07.539Z,5.43
2023-04-27T18:31:51.732Z,5.63
2023-04-27T18:34:36.895Z,5.27
2023-04-27T18:37:21.062Z,6.30
2023-04-27T18:40:06.242Z,5.67
2023-04-27T18:42:50.489Z,5.80
2023-04-27T18:45:35.826Z,5.97
2023-04-27T18:48:19.948Z,5.83
2023-04-27T18:51:03.821Z,6.03
2023-04-27T18:53:47.988Z,6.50
2023-04-27T18:56:32.990Z,6.23
2023-04-27T18:59:17.003Z,6.07
2023-04-27T19:02:02.365Z,5.93
2023-04-27T19:04:52.893Z,6.50
2023-04-27T19:07:41.296Z,5.87
2023-04-27T19:10:25.426Z,5.97
2023-04-27T19:13:10.364Z,6.80
2023-04-27T19:15:54.521Z,5.67
2023-04-27T19:18:40.905Z,6.13
2023-04-27T19:21:25.267Z,5.90
2023-04-27T19:24:09.664Z,5.70
2023-04-27T19:26:54.024Z,5.73
2023-04-27T19:29:51.250Z,5.73
2023-04-27T19:32:35.912Z,6.07
2023-04-27T19:35:24.063Z,6.60
2023-04-27T19:38:08.272Z,7.50
2023-04-27T19:40:52.632Z,6.63
2023-04-27T19:43:36.961Z,6.37
2023-04-27T19:46:21.314Z,6.33
2023-04-27T19:49:05.623Z,6.07
2023-04-27T19:51:51.055Z,5.70
2023-04-27T19:54:36.303Z,5.57
2023-04-27T19:57:20.524Z,6.53
2023-04-27T20:00:05.511Z,5.90
2023-04-27T20:02:58.897Z,5.43
2023-04-27T20:05:45.122Z,5.63
2023-04-27T20:08:30.817Z,6.50
2023-04-27T20:11:15.206Z,5.07
2023-04-27T20:13:59.315Z,5.17
2023-04-27T20:16:43.641Z,4.87
2023-04-27T20:19:27.852Z,8.73
2023-04-27T20:22:12.948Z,5.83
2023-04-27T20:24:59.716Z,5.53
2023-04-27T20:27:44.017Z,5.50
2023-04-27T20:30:29.188Z,5.20
2023-04-27T20:33:13.995Z,4.67
2023-04-27T20:36:03.602Z,5.17
2023-04-27T20:38:54.416Z,4.00
2023-04-27T20:41:42.097Z,4.07
2023-04-27T20:44:26.047Z,3.90
2023-04-27T20:47:10.047Z,4.20
2023-04-27T20:49:53.989Z,3.90
2023-04-27T20:52:38.042Z,4.20
2023-04-27T20:55:22.378Z,3.50
2023-04-27T20:58:07.872Z,3.67
2023-04-27T21:00:52.236Z,3.80
2023-04-27T21:03:36.576Z,3.80
2023-04-27T21:06:20.717Z,3.83
2023-04-27T21:09:06.468Z,6.50
2023-04-27T21:11:50.506Z,3.40
2023-04-27T21:14:36.075Z,3.17
2023-04-27T21:17:20.028Z,3.67
2023-04-27T21:20:04.142Z,4.37
2023-04-27T21:22:49.605Z,4.17
2023-04-27T21:25:33.528Z,4.50
2023-04-27T21:28:17.416Z,3.90
2023-04-27T21:31:03.343Z,4.23
2023-04-27T21:33:47.469Z,3.60
2023-04-27T21:36:33.113Z,3.83
2023-04-27T21:39:17.086Z,5.10
2023-04-27T21:42:00.957Z,3.50
2023-04-27T21:44:45.145Z,3.63
2023-04-27T21:47:30.621Z,3.80
2023-04-27T21:50:14.577Z,3.57
2023-04-27T21:52:58.695Z,3.60
2023-04-27T21:55:42.689Z,3.77
2023-04-27T21:58:27.148Z,3.50
2023-04-27T22:01:12.830Z,3.50
2023-04-27T22:03:59.254Z,3.60
2023-04-27T22:06:43.629Z,3.67
2023-04-27T22:09:27.570Z,3.17
2023-04-27T22:12:11.811Z,3.10
2023-04-27T22:14:55.751Z,2.90
2023-04-27T22:17:40.847Z,3.90
2023-04-27T22:20:26.260Z,3.30
2023-04-27T22:23:10.929Z,3.23
2023-04-27T22:25:54.855Z,3.07
2023-04-27T22:28:39.212Z,2.73
2023-04-27T22:31:23.353Z,3.30
2023-04-27T22:34:07.379Z,3.33
2023-04-27T22:36:52.866Z,2.97
2023-04-27T22:39:37.015Z,3.20
2023-04-27T22:42:20.897Z,3.33
2023-04-27T22:45:05.142Z,2.77
2023-04-27T22:47:50.501Z,3.50
2023-04-27T22:50:34.611Z,2.93
2023-04-27T22:53:20.086Z,3.03
2023-04-27T22:56:04.210Z,3.50
2023-04-27T22:58:48.156Z,2.80
2023-04-27T23:01:32.152Z,2.83
2023-04-27T23:04:16.634Z,2.53
2023-04-27T23:07:01.014Z,3.03
2023-04-27T23:09:48.315Z,3.40
2023-04-27T23:12:32.405Z,3.13
2023-04-27T23:15:16.660Z,2.33
2023-04-27T23:18:00.952Z,2.40
2023-04-27T23:20:44.991Z,2.60
2023-04-27T23:23:29.009Z,3.20
2023-04-27T23:26:15.377Z,2.80
2023-04-27T23:28:59.473Z,3.30
2023-04-27T23:31:43.432Z,3.30
2023-04-27T23:34:27.386Z,2.63
2023-04-27T23:37:11.373Z,2.97
2023-04-27T23:39:55.468Z,2.67
2023-04-27T23:42:40.894Z,3.47
2023-04-27T23:45:24.826Z,3.50
2023-04-27T23:48:08.926Z,3.33
2023-04-27T23:51:01.006Z,3.03
2023-04-27T23:53:44.912Z,3.00
2023-04-27T23:56:28.919Z,3.43
2023-04-27T23:59:15.188Z,3.03
